createdAt,value
2022-11-02T00:00:53.171Z,100418.59
2022-11-02T00:03:20.775Z,100410.84
2022-11-02T00:05:48.097Z,100419.47
2022-11-02T00:08:15.468Z,100422.94
2022-11-02T00:10:43.054Z,100410.72
2022-11-02T00:13:10.360Z,100421.19
2022-11-02T00:15:37.938Z,100420.25
2022-11-02T00:18:08.561Z,100419.34
2022-11-02T00:20:37.646Z,100421.91
2022-11-02T00:23:07.611Z,100422.81
2022-11-02T00:25:46.818Z,100417.47
2022-11-02T00:28:14.671Z,100416.53
2022-11-02T00:30:42.600Z,100416.59
2022-11-02T00:33:10.275Z,100421.00
2022-11-02T00:35:38.070Z,100419.31
2022-11-02T00:38:06.115Z,100420.19
2022-11-02T00:40:33.727Z,100434.28
2022-11-02T00:43:01.204Z,100428.13
2022-11-02T00:45:28.802Z,100409.78
2022-11-02T00:47:56.112Z,100409.78
2022-11-02T00:50:23.494Z,100408.91
2022-11-02T00:52:51.230Z,100416.75
2022-11-02T00:55:18.989Z,100407.06
2022-11-02T00:57:46.330Z,100403.53
2022-11-02T01:00:14.937Z,100416.69
2022-11-02T01:02:42.942Z,100408.03
2022-11-02T01:05:11.109Z,100416.81
2022-11-02T01:07:38.882Z,100417.72
2022-11-02T01:10:07.341Z,100418.47
2022-11-02T01:12:37.452Z,100410.63
2022-11-02T01:15:07.168Z,100415.03
2022-11-02T01:17:34.783Z,100415.03
2022-11-02T01:20:05.835Z,100413.31
2022-11-02T01:22:33.522Z,100404.56
2022-11-02T01:25:00.856Z,100398.44
2022-11-02T01:27:28.141Z,100399.31
2022-11-02T01:29:55.780Z,100393.31
2022-11-02T01:32:23.083Z,100395.00
2022-11-02T01:34:50.385Z,100387.97
2022-11-02T01:37:17.963Z,100384.50
2022-11-02T01:39:45.267Z,100400.22
2022-11-02T01:42:20.556Z,100396.69
2022-11-02T01:44:48.245Z,100401.00
2022-11-02T01:47:28.848Z,100400.09
2022-11-02T01:50:09.705Z,100398.47
2022-11-02T01:52:38.076Z,100404.56
2022-11-02T01:55:21.740Z,100396.75
2022-11-02T01:57:53.850Z,100394.06
2022-11-02T02:00:21.740Z,100399.28
2022-11-02T02:02:53.306Z,100393.16
2022-11-02T02:05:22.566Z,100392.34
2022-11-02T02:07:51.650Z,100392.22
2022-11-02T02:10:19.225Z,100392.28
2022-11-02T02:12:46.749Z,100398.41
2022-11-02T02:15:14.936Z,100381.06
2022-11-02T02:18:02.402Z,100381.84
2022-11-02T02:21:08.239Z,100385.28
2022-11-02T02:24:06.946Z,100387.88
2022-11-02T02:27:05.175Z,100384.50
2022-11-02T02:29:45.908Z,100386.16
2022-11-02T02:32:19.165Z,100385.22
2022-11-02T02:35:19.347Z,100385.41
2022-11-02T02:38:00.051Z,100394.06
2022-11-02T02:40:50.884Z,100402.06
2022-11-02T02:43:26.210Z,100408.19
2022-11-02T02:46:24.123Z,100420.41
2022-11-02T02:48:53.026Z,100423.81
2022-11-02T02:51:34.173Z,100415.16
2022-11-02T02:54:13.750Z,100422.19
2022-11-02T02:59:29.378Z,100430.03
2022-11-02T03:01:58.244Z,100429.94
2022-11-02T03:04:26.148Z,100430.84
2022-11-02T03:06:56.784Z,100440.44
2022-11-02T03:09:24.309Z,100438.72
2022-11-02T03:12:04.604Z,100436.97
2022-11-02T03:14:44.024Z,100450.09
2022-11-02T03:17:20.502Z,100457.97
2022-11-02T03:20:07.195Z,100439.59
2022-11-02T03:22:40.463Z,100447.47
2022-11-02T03:25:38.398Z,100458.81
2022-11-02T03:28:17.449Z,100459.66
2022-11-02T03:30:50.054Z,100459.66
2022-11-02T03:33:22.682Z,100461.41
2022-11-02T03:35:50.203Z,100463.19
2022-11-02T03:38:23.226Z,100452.72
2022-11-02T03:40:53.048Z,100450.03
2022-11-02T03:43:21.165Z,100457.94
2022-11-02T03:45:55.203Z,100446.56
2022-11-02T03:48:26.674Z,100443.94
2022-11-02T03:50:54.803Z,100441.31
2022-11-02T03:53:25.479Z,100443.94
2022-11-02T03:55:57.014Z,100453.59
2022-11-02T03:58:24.380Z,100454.44
2022-11-02T04:00:56.258Z,100452.62
2022-11-02T04:03:24.894Z,100456.19
2022-11-02T04:05:52.804Z,100464.94
2022-11-02T04:08:29.356Z,100470.19
2022-11-02T04:11:16.135Z,100473.59
2022-11-02T04:14:02.497Z,100469.19
2022-11-02T04:16:30.674Z,100472.75
2022-11-02T04:19:17.118Z,100483.22
2022-11-02T04:22:05.366Z,100489.34
2022-11-02T04:24:51.868Z,100488.47
2022-11-02T04:27:21.229Z,100488.41
2022-11-02T04:29:49.273Z,100497.06
2022-11-02T04:32:39.955Z,100488.25
2022-11-02T04:35:08.650Z,100491.81
2022-11-02T04:38:01.476Z,100493.50
2022-11-02T04:40:29.622Z,100496.28
2022-11-02T04:42:57.303Z,100496.22
2022-11-02T04:45:24.830Z,100486.56
2022-11-02T04:47:53.147Z,100495.38
2022-11-02T04:50:20.515Z,100497.94
2022-11-02T04:52:58.257Z,100495.25
2022-11-02T04:55:26.493Z,100496.94
2022-11-02T04:57:53.997Z,100496.97
2022-11-02T05:00:22.378Z,100500.47
2022-11-02T05:02:50.958Z,100499.62
2022-11-02T05:05:19.939Z,100497.03
2022-11-02T05:07:48.109Z,100496.97
2022-11-02T05:10:15.974Z,100499.62
2022-11-02T05:12:44.742Z,100494.34
2022-11-02T05:15:12.083Z,100497.78
2022-11-02T05:17:39.706Z,100496.09
2022-11-02T05:20:08.669Z,100498.69
2022-11-02T05:22:36.006Z,100510.00
2022-11-02T05:25:03.798Z,100497.78
2022-11-02T05:27:31.425Z,100511.03
2022-11-02T05:29:59.934Z,100508.41
2022-11-02T05:32:28.022Z,100513.53
2022-11-02T05:34:55.508Z,100511.00
2022-11-02T05:37:23.068Z,100508.37
2022-11-02T05:39:50.797Z,100497.84
2022-11-02T05:42:18.245Z,100502.16
2022-11-02T05:44:45.861Z,100502.16
2022-11-02T05:47:14.090Z,100501.25
2022-11-02T05:49:41.397Z,100497.72
2022-11-02T05:52:08.837Z,100492.56
2022-11-02T05:54:36.410Z,100494.19
2022-11-02T05:57:03.752Z,100500.22
2022-11-02T05:59:31.165Z,100490.75
2022-11-02T06:01:58.807Z,100494.19
2022-11-02T06:04:26.450Z,100488.78
2022-11-02T06:06:53.758Z,100491.31
2022-11-02T06:09:21.125Z,100501.00
2022-11-02T06:11:48.691Z,100497.59
2022-11-02T06:14:16.076Z,100494.84
2022-11-02T06:16:43.403Z,100494.97
2022-11-02T06:19:11.002Z,100497.59
2022-11-02T06:21:38.342Z,100497.59
2022-11-02T06:24:05.775Z,100518.44
2022-11-02T06:26:33.385Z,100516.03
2022-11-02T06:29:00.703Z,100532.56
2022-11-02T06:31:28.087Z,100528.06
2022-11-02T06:33:55.645Z,100527.25
2022-11-02T06:36:23.015Z,100532.37
2022-11-02T06:38:51.160Z,100538.50
2022-11-02T06:41:18.727Z,100542.06
2022-11-02T06:43:46.041Z,100547.28
2022-11-02T06:46:13.370Z,100555.94
2022-11-02T06:48:40.974Z,100555.87
2022-11-02T06:51:08.363Z,100565.41
2022-11-02T06:53:35.692Z,100558.47
2022-11-02T06:56:03.315Z,100557.47
2022-11-02T06:58:30.938Z,100547.94
2022-11-02T07:01:04.049Z,100543.59
2022-11-02T07:03:31.653Z,100546.13
2022-11-02T07:05:59.174Z,100545.22
2022-11-02T07:08:27.728Z,100542.56
2022-11-02T07:10:55.831Z,100549.53
2022-11-02T07:13:23.147Z,100544.25
2022-11-02T07:15:54.519Z,100541.53
2022-11-02T07:18:22.499Z,100547.69
2022-11-02T07:20:50.113Z,100545.94
2022-11-02T07:23:17.479Z,100541.53
2022-11-02T07:25:45.054Z,100544.03
2022-11-02T07:28:12.379Z,100543.16
2022-11-02T07:30:39.925Z,100548.47
2022-11-02T07:33:07.790Z,100545.69
2022-11-02T07:35:35.510Z,100554.72
2022-11-02T07:38:07.123Z,100548.75
2022-11-02T07:40:36.039Z,100550.03
2022-11-02T07:43:04.470Z,100554.56
2022-11-02T07:45:33.045Z,100556.38
2022-11-02T07:48:00.615Z,100554.50
2022-11-02T07:50:28.498Z,100553.53
2022-11-02T07:52:57.939Z,100544.50
2022-11-02T07:55:27.733Z,100557.59
2022-11-02T07:57:59.118Z,100546.28
2022-11-02T08:00:28.115Z,100543.09
2022-11-02T08:03:00.003Z,100550.72
2022-11-02T08:05:29.157Z,100545.69
2022-11-02T08:08:01.764Z,100548.31
2022-11-02T08:10:35.279Z,100552.59
2022-11-02T08:13:08.431Z,100551.50
2022-11-02T08:15:35.826Z,100554.09
2022-11-02T08:18:17.404Z,100555.03
2022-11-02T08:20:46.250Z,100556.78
2022-11-02T08:23:15.527Z,100551.53
2022-11-02T08:25:45.534Z,100546.16
2022-11-02T08:28:15.999Z,100547.97
2022-11-02T08:30:43.393Z,100548.53
2022-11-02T08:33:13.315Z,100548.81
2022-11-02T08:35:41.838Z,100543.44
2022-11-02T08:38:09.578Z,100553.22
2022-11-02T08:40:37.639Z,100553.22
2022-11-02T08:43:07.559Z,100552.06
2022-11-02T08:46:12.844Z,100550.22
2022-11-02T08:48:24.366Z,100551.97
2022-11-02T08:50:51.770Z,100554.41
2022-11-02T08:53:19.110Z,100549.22
2022-11-02T08:55:46.813Z,100544.94
2022-11-02T08:58:14.138Z,100543.78
2022-11-02T09:00:41.471Z,100543.03
2022-11-02T09:03:14.198Z,100533.09
2022-11-02T09:05:43.831Z,100542.34
2022-11-02T09:08:14.081Z,100541.63
2022-11-02T09:10:41.566Z,100536.31
2022-11-02T09:13:11.842Z,100538.59
2022-11-02T09:15:39.859Z,100544.78
2022-11-02T09:18:08.442Z,100537.63
2022-11-02T09:20:35.940Z,100540.84
2022-11-02T09:23:03.633Z,100533.72
2022-11-02T09:25:30.952Z,100537.06
2022-11-02T09:27:58.280Z,100536.34
2022-11-02T09:30:27.508Z,100533.50
2022-11-02T09:32:56.486Z,100530.53
2022-11-02T09:35:24.875Z,100530.28
2022-11-02T09:37:52.462Z,100528.31
2022-11-02T09:40:22.543Z,100535.44
2022-11-02T09:42:59.063Z,100530.12
2022-11-02T09:45:26.768Z,100534.19
2022-11-02T09:51:02.433Z,100534.75
2022-11-02T09:53:36.545Z,100538.31
2022-11-02T09:56:05.592Z,100527.97
2022-11-02T09:58:38.034Z,100532.34
2022-11-02T10:01:29.888Z,100529.66
2022-11-02T10:04:03.450Z,100529.34
2022-11-02T10:06:31.575Z,100521.16
2022-11-02T10:09:05.846Z,100523.66
2022-11-02T10:12:06.698Z,100523.91
2022-11-02T10:14:36.858Z,100525.56
2022-11-02T10:17:17.774Z,100523.66
2022-11-02T10:19:50.006Z,100522.00
2022-11-02T10:22:17.318Z,100517.69
2022-11-02T10:24:46.869Z,100511.06
2022-11-02T10:27:23.563Z,100507.00
2022-11-02T10:30:16.187Z,100510.09
2022-11-02T10:32:45.171Z,100508.03
2022-11-02T10:35:34.005Z,100517.06
2022-11-02T10:38:15.000Z,100513.75
2022-11-02T10:40:58.524Z,100502.09
2022-11-02T10:43:47.110Z,100508.19
2022-11-02T10:46:29.204Z,100516.78
2022-11-02T10:49:14.645Z,100517.38
2022-11-02T10:51:42.370Z,100514.75
2022-11-02T10:54:17.707Z,100513.03
2022-11-02T10:56:50.230Z,100519.66
2022-11-02T10:59:20.163Z,100508.69
2022-11-02T11:01:56.539Z,100508.28
2022-11-02T11:04:28.520Z,100503.62
2022-11-02T11:06:56.846Z,100503.31
2022-11-02T11:09:30.628Z,100504.38
2022-11-02T11:12:12.470Z,100512.31
2022-11-02T11:20:34.669Z,100514.66
2022-11-02T11:23:17.382Z,100517.91
2022-11-02T11:26:00.621Z,100505.84
2022-11-02T11:28:53.190Z,100516.16
2022-11-02T11:31:21.122Z,100513.12
2022-11-02T11:33:51.843Z,100521.66
2022-11-02T11:36:30.769Z,100526.13
2022-11-02T11:39:01.699Z,100522.50
2022-11-02T11:41:31.353Z,100516.19
2022-11-02T11:44:00.453Z,100516.41
2022-11-02T11:46:46.947Z,100522.09
2022-11-02T11:49:55.463Z,100516.50
2022-11-02T11:52:29.882Z,100513.94
2022-11-02T11:55:19.173Z,100516.31
2022-11-02T11:57:46.627Z,100507.53
2022-11-02T12:00:28.990Z,100507.25
2022-11-02T12:03:22.969Z,100502.47
2022-11-02T12:06:04.362Z,100497.19
2022-11-02T12:08:43.800Z,100476.06
2022-11-02T12:11:23.707Z,100468.88
2022-11-02T12:14:13.587Z,100470.50
2022-11-02T12:17:02.670Z,100462.94
2022-11-02T12:19:55.423Z,100473.03
2022-11-02T12:22:30.137Z,100463.22
2022-11-02T12:25:27.071Z,100462.06
2022-11-02T12:28:19.318Z,100454.56
2022-11-02T12:31:02.386Z,100454.50
2022-11-02T12:33:58.437Z,100453.63
2022-11-02T12:36:29.643Z,100445.16
2022-11-02T12:39:12.941Z,100449.25
2022-11-02T12:42:19.388Z,100450.53
2022-11-02T12:45:04.844Z,100449.34
2022-11-02T12:48:01.286Z,100445.09
2022-11-02T12:50:31.487Z,100445.22
2022-11-02T12:53:02.278Z,100445.09
2022-11-02T12:55:38.122Z,100446.22
2022-11-02T12:58:08.492Z,100435.44
2022-11-02T13:00:37.791Z,100432.25
2022-11-02T13:03:35.439Z,100425.28
2022-11-02T13:06:07.972Z,100428.91
2022-11-02T13:08:49.924Z,100425.06
2022-11-02T13:11:38.262Z,100430.25
2022-11-02T13:14:12.972Z,100422.97
2022-11-02T13:17:05.469Z,100432.41
2022-11-02T13:19:42.771Z,100431.94
2022-11-02T13:22:12.176Z,100422.00
2022-11-02T13:24:43.815Z,100424.34
2022-11-02T13:27:36.547Z,100424.47
2022-11-02T13:30:10.058Z,100422.56
2022-11-02T13:32:46.570Z,100438.97
2022-11-02T13:35:27.667Z,100430.25
2022-11-02T13:38:04.096Z,100435.50
2022-11-02T13:40:38.389Z,100443.09
2022-11-02T13:43:09.236Z,100436.75
2022-11-02T13:45:52.017Z,100428.69
2022-11-02T13:48:22.700Z,100442.59
2022-11-02T13:50:52.186Z,100449.56
2022-11-02T13:53:25.567Z,100440.53
2022-11-02T13:56:01.842Z,100442.56
2022-11-02T13:58:47.030Z,100445.56
2022-11-02T14:01:18.256Z,100441.84
2022-11-02T14:03:51.362Z,100447.06
2022-11-02T14:06:19.804Z,100447.47
2022-11-02T14:08:51.367Z,100451.94
2022-11-02T14:11:18.529Z,100452.06
2022-11-02T14:13:54.684Z,100456.41
2022-11-02T14:16:47.273Z,100453.09
2022-11-02T14:19:19.092Z,100452.91
2022-11-02T14:21:59.824Z,100453.00
2022-11-02T14:24:33.451Z,100441.44
2022-11-02T14:27:02.403Z,100439.59
2022-11-02T14:29:47.738Z,100439.81
2022-11-02T14:32:19.699Z,100442.31
2022-11-02T14:35:17.835Z,100446.06
2022-11-02T14:38:16.482Z,100444.22
2022-11-02T14:40:58.690Z,100444.25
2022-11-02T14:43:41.835Z,100457.56
2022-11-02T14:46:47.742Z,100452.53
2022-11-02T14:49:25.082Z,100458.81
2022-11-02T14:52:03.870Z,100452.69
2022-11-02T14:54:37.677Z,100463.31
2022-11-02T14:57:07.702Z,100463.97
2022-11-02T14:59:40.592Z,100462.34
2022-11-02T15:02:24.416Z,100459.12
2022-11-02T15:04:55.229Z,100460.13
2022-11-02T15:08:02.138Z,100462.72
2022-11-02T15:10:32.724Z,100467.84
2022-11-02T15:13:18.430Z,100470.00
2022-11-02T15:15:52.047Z,100465.62
2022-11-02T15:18:34.855Z,100470.16
2022-11-02T15:21:11.755Z,100464.84
2022-11-02T15:23:59.987Z,100473.72
2022-11-02T15:26:51.028Z,100467.00
2022-11-02T15:29:32.975Z,100473.09
2022-11-02T15:32:01.359Z,100475.75
2022-11-02T15:34:35.350Z,100482.72
2022-11-02T15:37:03.532Z,100476.88
2022-11-02T15:39:31.533Z,100480.53
2022-11-02T15:42:05.232Z,100487.56
2022-11-02T15:44:57.420Z,100485.06
2022-11-02T15:47:39.055Z,100490.34
2022-11-02T15:50:25.290Z,100483.50
2022-11-02T15:53:23.500Z,100488.09
2022-11-02T15:55:59.608Z,100488.25
2022-11-02T15:58:46.763Z,100481.16
2022-11-02T16:01:25.343Z,100488.22
2022-11-02T16:03:59.656Z,100483.09
2022-11-02T16:06:29.787Z,100480.53
2022-11-02T16:09:00.091Z,100485.28
2022-11-02T16:11:28.685Z,100475.84
2022-11-02T16:14:16.048Z,100480.28
2022-11-02T16:16:50.611Z,100481.31
2022-11-02T16:19:21.620Z,100481.66
2022-11-02T16:21:49.895Z,100485.47
2022-11-02T16:24:17.958Z,100486.44
2022-11-02T16:26:46.574Z,100489.22
2022-11-02T16:29:30.054Z,100496.56
2022-11-02T16:31:59.649Z,100499.31
2022-11-02T16:34:30.093Z,100503.03
2022-11-02T16:36:57.977Z,100500.44
2022-11-02T16:39:28.859Z,100506.72
2022-11-02T16:41:58.567Z,100508.56
2022-11-02T16:44:31.265Z,100517.47
2022-11-02T16:47:19.090Z,100513.00
2022-11-02T16:49:52.188Z,100515.78
2022-11-02T16:52:22.652Z,100521.13
2022-11-02T16:54:49.991Z,100519.53
2022-11-02T16:57:39.939Z,100521.25
2022-11-02T17:00:17.645Z,100528.63
2022-11-02T17:02:45.280Z,100534.00
2022-11-02T17:05:21.673Z,100533.34
2022-11-02T17:08:05.267Z,100518.44
2022-11-02T17:10:34.545Z,100535.22
2022-11-02T17:13:03.495Z,100534.59
2022-11-02T17:15:34.630Z,100535.63
2022-11-02T17:18:08.818Z,100529.59
2022-11-02T17:20:38.283Z,100533.16
2022-11-02T17:23:08.210Z,100539.16
2022-11-02T17:25:37.477Z,100543.72
2022-11-02T17:28:33.682Z,100540.19
2022-11-02T17:31:01.757Z,100552.69
2022-11-02T17:33:31.003Z,100539.69
2022-11-02T17:36:06.756Z,100554.75
2022-11-02T17:38:34.913Z,100550.25
2022-11-02T17:41:02.284Z,100546.75
2022-11-02T17:43:29.598Z,100546.00
2022-11-02T17:45:58.297Z,100551.31
2022-11-02T17:48:28.738Z,100557.47
2022-11-02T17:50:56.740Z,100547.94
2022-11-02T17:53:24.485Z,100554.09
2022-11-02T17:55:52.109Z,100554.12
2022-11-02T17:58:19.425Z,100551.69
2022-11-02T18:00:47.122Z,100551.53
2022-11-02T18:03:19.303Z,100545.41
2022-11-02T18:05:50.158Z,100544.59
2022-11-02T18:08:19.485Z,100548.13
2022-11-02T18:10:47.865Z,100551.53
2022-11-02T18:13:20.091Z,100557.56
2022-11-02T18:15:47.967Z,100562.03
2022-11-02T18:18:15.445Z,100554.25
2022-11-02T18:20:42.773Z,100550.72
2022-11-02T18:23:15.437Z,100560.38
2022-11-02T18:25:42.905Z,100554.31
2022-11-02T18:28:10.527Z,100556.88
2022-11-02T18:30:42.226Z,100549.13
2022-11-02T18:33:13.425Z,100554.31
2022-11-02T18:35:42.503Z,100554.34
2022-11-02T18:38:10.243Z,100557.62
2022-11-02T18:40:37.583Z,100557.62
2022-11-02T18:43:05.338Z,100554.88
2022-11-02T18:45:33.379Z,100552.19
2022-11-02T18:48:00.976Z,100551.38
2022-11-02T18:50:28.296Z,100556.47
2022-11-02T18:52:55.876Z,100555.59
2022-11-02T18:55:23.218Z,100556.47
2022-11-02T18:57:50.910Z,100561.66
2022-11-02T19:00:18.860Z,100558.22
2022-11-02T19:02:46.217Z,100558.69
2022-11-02T19:05:32.023Z,100557.50
2022-11-02T19:08:18.963Z,100566.41
2022-11-02T19:10:47.355Z,100559.69
2022-11-02T19:13:15.250Z,100566.37
2022-11-02T19:15:43.044Z,100571.78
2022-11-02T19:18:10.454Z,100570.00
2022-11-02T19:20:38.063Z,100575.19
2022-11-02T19:23:05.503Z,100571.75
2022-11-02T19:25:32.924Z,100574.28
2022-11-02T19:28:00.529Z,100578.81
2022-11-02T19:30:27.861Z,100572.75
2022-11-02T19:32:55.189Z,100574.41
2022-11-02T19:35:22.761Z,100573.28
2022-11-02T19:37:50.079Z,100571.53
2022-11-02T19:40:17.390Z,100573.50
2022-11-02T19:42:44.967Z,100573.69
2022-11-02T19:45:17.777Z,100571.00
2022-11-02T19:47:45.401Z,100572.87
2022-11-02T19:50:12.837Z,100571.97
2022-11-02T19:52:40.183Z,100578.94
2022-11-02T19:55:08.062Z,100583.44
2022-11-02T19:57:35.446Z,100580.03
2022-11-02T20:00:03.042Z,100585.13
2022-11-02T20:02:36.399Z,100578.94
2022-11-02T20:05:04.308Z,100592.91
2022-11-02T20:07:31.631Z,100579.78
2022-11-02T20:09:59.845Z,100578.06
2022-11-02T20:12:27.590Z,100578.91
2022-11-02T20:14:54.903Z,100583.28
2022-11-02T20:17:31.935Z,100583.25
2022-11-02T20:20:06.437Z,100582.41
2022-11-02T20:22:35.310Z,100578.06
2022-11-02T20:25:02.610Z,100588.66
2022-11-02T20:27:30.540Z,100592.94
2022-11-02T20:29:57.942Z,100586.75
2022-11-02T20:32:25.313Z,100587.59
2022-11-02T20:34:52.907Z,100580.59
2022-11-02T20:37:20.220Z,100590.22
2022-11-02T20:39:47.637Z,100586.00
2022-11-02T20:42:15.407Z,100591.47
2022-11-02T20:44:48.957Z,100577.47
2022-11-02T20:47:16.552Z,100580.06
2022-11-02T20:49:50.437Z,100587.00
2022-11-02T20:52:18.984Z,100587.97
2022-11-02T20:54:46.573Z,100590.69
2022-11-02T20:57:13.860Z,100586.37
2022-11-02T20:59:41.442Z,100594.25
2022-11-02T21:02:12.395Z,100586.44
2022-11-02T21:04:39.963Z,100589.00
2022-11-02T21:07:07.904Z,100580.25
2022-11-02T21:09:35.605Z,100581.97
2022-11-02T21:12:21.350Z,100582.03
2022-11-02T21:14:49.479Z,100584.66
2022-11-02T21:17:16.790Z,100590.81
2022-11-02T21:19:44.210Z,100593.37
2022-11-02T21:22:12.282Z,100589.94
2022-11-02T21:24:39.605Z,100595.19
2022-11-02T21:27:06.908Z,100590.75
2022-11-02T21:29:34.896Z,100597.81
2022-11-02T21:32:02.190Z,100598.75
2022-11-02T21:34:29.516Z,100600.47
2022-11-02T21:36:57.140Z,100599.66
2022-11-02T21:39:24.468Z,100599.59
2022-11-02T21:41:51.804Z,100596.31
2022-11-02T21:44:19.374Z,100610.19
2022-11-02T21:46:46.929Z,100593.66
2022-11-02T21:49:14.241Z,100596.34
2022-11-02T21:51:42.848Z,100594.44
2022-11-02T21:54:11.045Z,100598.81
2022-11-02T21:56:39.680Z,100596.22
2022-11-02T21:59:09.093Z,100600.59
2022-11-02T22:01:46.862Z,100600.69
2022-11-02T22:04:25.670Z,100605.03
2022-11-02T22:06:53.544Z,100604.06
2022-11-02T22:09:21.519Z,100611.84
2022-11-02T22:12:09.192Z,100605.94
2022-11-02T22:14:37.761Z,100607.63
2022-11-02T22:17:16.514Z,100604.13
2022-11-02T22:19:50.763Z,100599.66
2022-11-02T22:22:18.449Z,100602.41
2022-11-02T22:24:45.762Z,100615.41
2022-11-02T22:27:13.318Z,100607.53
2022-11-02T22:29:40.623Z,100614.50
2022-11-02T22:32:08.044Z,100617.06
2022-11-02T22:34:35.602Z,100603.03
2022-11-02T22:37:21.394Z,100614.38
2022-11-02T22:39:48.973Z,100609.19
2022-11-02T22:42:16.290Z,100608.25
2022-11-02T22:44:43.604Z,100616.97
2022-11-02T22:47:11.162Z,100623.06
2022-11-02T22:49:38.478Z,100623.97
2022-11-02T22:52:05.773Z,100622.19
2022-11-02T22:54:33.353Z,100635.38
2022-11-02T22:57:00.917Z,100628.34
2022-11-02T22:59:28.213Z,100639.72
2022-11-02T23:01:55.919Z,100627.47
2022-11-02T23:04:23.348Z,100624.97
2022-11-02T23:06:50.694Z,100627.50
2022-11-02T23:09:18.263Z,100630.19
2022-11-02T23:11:45.575Z,100625.81
2022-11-02T23:14:14.545Z,100636.28
2022-11-02T23:16:44.275Z,100626.75
2022-11-02T23:19:32.945Z,100631.19
2022-11-02T23:22:20.624Z,100640.84
2022-11-02T23:25:08.136Z,100636.47
2022-11-02T23:27:56.527Z,100630.47
2022-11-02T23:30:44.537Z,100621.66
2022-11-02T23:33:12.183Z,100636.50
2022-11-02T23:35:57.905Z,100624.25
2022-11-02T23:38:45.447Z,100633.03
2022-11-02T23:41:12.789Z,100631.31
2022-11-02T23:43:40.374Z,100624.28
2022-11-02T23:46:07.689Z,100627.88
2022-11-02T23:48:34.994Z,100627.00
2022-11-02T23:51:21.242Z,100635.72
2022-11-02T23:54:07.053Z,100628.75
2022-11-02T23:56:43.741Z,100633.16
2022-11-02T23:59:12.384Z,100638.38
